createdAt,value
2023-04-02T00:00:34.338Z,7.40
2023-04-02T00:03:08.478Z,7.40
2023-04-02T00:05:51.990Z,7.40
2023-04-02T00:08:23.385Z,7.40
2023-04-02T00:11:01.548Z,7.40
2023-04-02T00:13:36.331Z,7.40
2023-04-02T00:16:06.978Z,7.40
2023-04-02T00:18:35.876Z,7.40
2023-04-02T00:21:16.333Z,7.40
2023-04-02T00:23:44.240Z,7.40
2023-04-02T00:26:36.651Z,7.40
2023-04-02T00:29:07.201Z,7.40
2023-04-02T00:31:37.691Z,7.40
2023-04-02T00:34:07.215Z,7.40
2023-04-02T00:36:35.126Z,7.30
2023-04-02T00:39:04.771Z,7.30
2023-04-02T00:41:36.002Z,7.30
2023-04-02T00:44:03.470Z,7.30
2023-04-02T00:46:49.428Z,7.30
2023-04-02T00:49:41.045Z,7.30
2023-04-02T00:52:16.464Z,7.30
2023-04-02T00:55:03.580Z,7.30
2023-04-02T00:57:31.004Z,7.20
2023-04-02T01:00:20.097Z,7.20
2023-04-02T01:03:28.682Z,7.20
2023-04-02T01:06:11.345Z,7.10
2023-04-02T01:09:02.296Z,7.10
2023-04-02T01:11:53.371Z,7.10
2023-04-02T01:14:45.384Z,7.20
2023-04-02T01:17:30.598Z,7.20
2023-04-02T01:20:47.838Z,7.20
2023-04-02T01:23:27.713Z,7.10
2023-04-02T01:26:14.908Z,7.20
2023-04-02T01:29:13.872Z,7.20
2023-04-02T01:31:41.780Z,7.20
2023-04-02T01:34:12.187Z,7.20
2023-04-02T01:37:00.902Z,7.20
2023-04-02T01:39:30.407Z,7.20
2023-04-02T01:42:13.198Z,7.20
2023-04-02T01:44:44.285Z,7.20
2023-04-02T01:47:14.138Z,7.10
2023-04-02T01:49:43.258Z,7.10
2023-04-02T01:52:16.100Z,7.10
2023-04-02T01:54:43.407Z,7.10
2023-04-02T01:57:10.554Z,7.00
2023-04-02T01:59:37.481Z,6.90
2023-04-02T02:02:13.459Z,6.90
2023-04-02T02:04:41.571Z,7.00
2023-04-02T02:07:16.306Z,7.00
2023-04-02T02:09:48.122Z,7.00
2023-04-02T02:12:16.047Z,7.10
2023-04-02T02:14:48.794Z,7.10
2023-04-02T02:17:27.473Z,7.10
2023-04-02T02:19:58.053Z,7.10
2023-04-02T02:22:37.051Z,7.10
2023-04-02T02:25:07.380Z,7.10
2023-04-02T02:27:46.711Z,7.00
2023-04-02T02:30:26.040Z,7.10
2023-04-02T02:33:03.939Z,7.10
2023-04-02T02:35:33.900Z,7.00
2023-04-02T02:38:19.852Z,7.10
2023-04-02T02:40:50.390Z,7.10
2023-04-02T02:43:18.499Z,7.10
2023-04-02T02:45:47.685Z,7.10
2023-04-02T02:48:19.288Z,7.10
2023-04-02T02:50:46.460Z,7.00
2023-04-02T02:53:21.370Z,7.00
2023-04-02T02:55:52.424Z,7.00
2023-04-02T02:58:31.416Z,7.10
2023-04-02T03:01:21.663Z,7.10
2023-04-02T03:03:54.560Z,7.10
2023-04-02T03:06:22.734Z,7.10
2023-04-02T03:09:15.862Z,7.00
2023-04-02T03:12:21.565Z,6.90
2023-04-02T03:15:22.974Z,6.80
2023-04-02T03:18:08.485Z,7.50
2023-04-02T03:20:40.887Z,6.80
2023-04-02T03:23:48.834Z,6.80
2023-04-02T03:26:26.549Z,6.80
2023-04-02T03:29:07.541Z,6.80
2023-04-02T03:31:46.771Z,6.80
2023-04-02T03:34:35.293Z,6.70
2023-04-02T03:37:18.483Z,6.70
2023-04-02T03:39:52.170Z,6.70
2023-04-02T03:42:27.112Z,6.70
2023-04-02T03:45:09.931Z,6.70
2023-04-02T03:48:00.800Z,6.60
2023-04-02T03:50:34.594Z,6.60
2023-04-02T03:53:03.207Z,6.60
2023-04-02T03:55:35.676Z,6.60
2023-04-02T03:58:14.217Z,6.60
2023-04-02T04:00:51.879Z,6.60
2023-04-02T04:03:32.363Z,6.60
2023-04-02T04:06:05.676Z,6.60
2023-04-02T04:08:51.959Z,6.50
2023-04-02T04:11:27.126Z,6.60
2023-04-02T04:14:20.111Z,6.60
2023-04-02T04:16:58.770Z,6.50
2023-04-02T04:19:39.575Z,6.50
2023-04-02T04:22:15.877Z,6.40
2023-04-02T04:24:45.810Z,6.30
2023-04-02T04:27:48.550Z,6.30
2023-04-02T04:30:22.866Z,6.30
2023-04-02T04:33:16.903Z,6.30
2023-04-02T04:35:49.321Z,6.30
2023-04-02T04:38:27.882Z,6.30
2023-04-02T04:41:01.705Z,6.20
2023-04-02T04:43:43.747Z,6.20
2023-04-02T04:46:29.440Z,6.20
2023-04-02T04:49:48.210Z,6.20
2023-04-02T04:52:22.280Z,6.20
2023-04-02T04:54:49.279Z,6.20
2023-04-02T04:57:36.928Z,6.20
2023-04-02T05:00:12.957Z,6.20
2023-04-02T05:02:52.555Z,6.20
2023-04-02T05:05:25.175Z,6.20
2023-04-02T05:08:00.099Z,6.20
2023-04-02T05:10:39.306Z,6.20
2023-04-02T05:13:31.362Z,6.20
2023-04-02T05:16:29.040Z,6.20
2023-04-02T05:19:10.941Z,6.20
2023-04-02T05:21:47.551Z,6.30
2023-04-02T05:24:37.626Z,6.30
2023-04-02T05:27:17.859Z,6.20
2023-04-02T05:29:50.862Z,6.10
2023-04-02T05:32:23.574Z,6.00
2023-04-02T05:34:54.789Z,5.90
2023-04-02T05:37:26.700Z,6.00
2023-04-02T05:39:56.992Z,6.00
2023-04-02T05:42:30.899Z,6.10
2023-04-02T05:45:07.900Z,6.20
2023-04-02T05:47:40.952Z,6.30
2023-04-02T05:50:17.027Z,6.30
2023-04-02T05:52:53.539Z,6.40
2023-04-02T05:55:33.062Z,6.50
2023-04-02T05:58:33.978Z,6.60
2023-04-02T06:01:23.675Z,6.60
2023-04-02T06:03:59.464Z,6.70
2023-04-02T06:06:50.514Z,6.80
2023-04-02T06:09:27.647Z,6.90
2023-04-02T06:12:14.631Z,7.00
2023-04-02T06:14:42.274Z,7.00
2023-04-02T06:17:14.525Z,7.10
2023-04-02T06:19:41.418Z,7.20
2023-04-02T06:22:32.305Z,7.30
2023-04-02T06:25:05.233Z,7.40
2023-04-02T06:27:40.000Z,7.50
2023-04-02T06:30:18.139Z,7.60
2023-04-02T06:32:47.779Z,7.80
2023-04-02T06:35:17.245Z,7.90
2023-04-02T06:37:49.877Z,8.10
2023-04-02T06:40:45.358Z,8.20
2023-04-02T06:43:41.009Z,8.30
2023-04-02T06:46:56.681Z,8.40
2023-04-02T06:49:43.189Z,8.50
2023-04-02T06:52:23.204Z,8.60
2023-04-02T06:54:50.002Z,8.70
2023-04-02T06:57:17.128Z,8.80
2023-04-02T06:59:46.665Z,9.00
2023-04-02T07:02:31.168Z,9.10
2023-04-02T07:05:04.099Z,9.10
2023-04-02T07:07:32.430Z,9.10
2023-04-02T07:10:02.289Z,9.10
2023-04-02T07:12:29.723Z,9.10
2023-04-02T07:14:56.710Z,9.20
2023-04-02T07:17:24.254Z,9.30
2023-04-02T07:19:51.049Z,9.40
2023-04-02T07:22:20.486Z,9.30
2023-04-02T07:24:51.968Z,9.30
2023-04-02T07:27:18.628Z,9.40
2023-04-02T07:29:45.299Z,9.50
2023-04-02T07:32:13.692Z,9.60
2023-04-02T07:34:41.471Z,9.60
2023-04-02T07:37:12.746Z,9.60
2023-04-02T07:39:40.673Z,9.70
2023-04-02T07:42:08.011Z,9.70
2023-04-02T07:44:34.676Z,9.90
2023-04-02T07:47:01.553Z,9.90
2023-04-02T07:49:28.437Z,10.00
2023-04-02T07:51:55.106Z,10.10
2023-04-02T07:54:21.805Z,10.00
2023-04-02T07:56:48.508Z,10.00
2023-04-02T07:59:15.333Z,10.00
2023-04-02T08:01:42.882Z,10.10
2023-04-02T08:04:18.922Z,10.00
2023-04-02T08:06:46.895Z,10.00
2023-04-02T08:09:14.720Z,10.10
2023-04-02T08:11:42.215Z,10.20
2023-04-02T08:14:09.886Z,10.30
2023-04-02T08:16:48.758Z,10.40
2023-04-02T08:19:16.084Z,10.40
2023-04-02T08:21:42.969Z,10.40
2023-04-02T08:24:09.660Z,10.50
2023-04-02T08:26:36.450Z,10.60
2023-04-02T08:29:03.811Z,10.60
2023-04-02T08:31:30.588Z,10.50
2023-04-02T08:33:57.349Z,10.60
2023-04-02T08:36:34.525Z,10.50
2023-04-02T08:39:01.847Z,10.50
2023-04-02T08:41:28.583Z,10.60
2023-04-02T08:44:09.570Z,10.60
2023-04-02T08:47:01.275Z,10.60
2023-04-02T08:49:35.851Z,10.70
2023-04-02T08:52:02.567Z,10.80
2023-04-02T08:54:32.836Z,10.90
2023-04-02T08:57:41.113Z,10.90
2023-04-02T09:00:36.794Z,10.90
2023-04-02T09:03:19.332Z,10.80
2023-04-02T09:05:47.687Z,10.70
2023-04-02T09:08:20.290Z,10.70
2023-04-02T09:11:24.426Z,10.60
2023-04-02T09:13:56.025Z,10.70
2023-04-02T09:16:50.606Z,10.80
2023-04-02T09:19:23.707Z,11.00
2023-04-02T09:22:05.930Z,11.00
2023-04-02T09:24:32.903Z,11.20
2023-04-02T09:26:59.893Z,11.30
2023-04-02T09:29:40.760Z,11.40
2023-04-02T09:32:39.730Z,11.60
2023-04-02T09:35:34.023Z,11.90
2023-04-02T09:38:20.871Z,12.10
2023-04-02T09:40:54.978Z,12.40
2023-04-02T09:43:27.180Z,12.40
2023-04-02T09:46:24.157Z,12.50
2023-04-02T09:49:01.116Z,12.60
2023-04-02T09:51:34.520Z,12.60
2023-04-02T09:54:04.113Z,12.60
2023-04-02T09:56:33.196Z,12.70
2023-04-02T09:59:05.209Z,12.70
2023-04-02T10:01:36.612Z,12.70
2023-04-02T10:04:05.394Z,12.70
2023-04-02T10:06:34.349Z,12.60
2023-04-02T10:09:22.096Z,12.40
2023-04-02T10:11:50.769Z,12.30
2023-04-02T10:14:28.911Z,12.10
2023-04-02T10:17:01.215Z,12.00
2023-04-02T10:19:35.915Z,12.10
2023-04-02T10:22:12.922Z,12.20
2023-04-02T10:24:40.507Z,12.10
2023-04-02T10:27:22.388Z,12.30
2023-04-02T10:30:24.932Z,12.60
2023-04-02T10:33:06.731Z,12.80
2023-04-02T10:35:52.419Z,12.90
2023-04-02T10:38:31.035Z,12.90
2023-04-02T10:40:59.707Z,12.80
2023-04-02T10:44:06.465Z,12.80
2023-04-02T10:47:10.920Z,12.90
2023-04-02T10:49:50.573Z,13.00
2023-04-02T10:55:58.232Z,13.20
2023-04-02T10:58:28.460Z,12.90
2023-04-02T11:01:17.243Z,12.70
2023-04-02T11:03:49.659Z,12.30
2023-04-02T11:06:49.244Z,11.80
2023-04-02T11:09:24.730Z,11.30
2023-04-02T11:11:56.043Z,11.00
2023-04-02T11:14:29.535Z,10.90
2023-04-02T11:16:59.227Z,11.00
2023-04-02T11:19:31.156Z,11.10
2023-04-02T11:22:01.885Z,11.40
2023-04-02T11:24:36.987Z,11.70
2023-04-02T11:27:08.046Z,11.90
2023-04-02T11:29:41.016Z,12.10
2023-04-02T11:32:34.227Z,12.20
2023-04-02T11:35:07.250Z,12.40
2023-04-02T11:37:44.579Z,12.80
2023-04-02T11:40:11.632Z,13.00
2023-04-02T11:42:46.238Z,13.20
2023-04-02T11:45:23.047Z,13.40
2023-04-02T11:48:15.406Z,13.60
2023-04-02T11:50:46.298Z,14.10
2023-04-02T11:53:13.489Z,14.00
2023-04-02T11:56:05.736Z,13.80
2023-04-02T11:59:08.031Z,13.80
2023-04-02T12:01:59.448Z,13.20
2023-04-02T12:04:52.629Z,12.60
2023-04-02T12:07:34.640Z,12.00
2023-04-02T12:10:23.308Z,11.50
2023-04-02T12:12:50.587Z,11.00
2023-04-02T12:15:26.981Z,10.80
2023-04-02T12:18:02.359Z,10.70
2023-04-02T12:20:31.008Z,10.80
2023-04-02T12:22:58.294Z,10.90
2023-04-02T12:25:31.303Z,11.00
2023-04-02T12:28:11.436Z,11.30
2023-04-02T12:30:38.911Z,11.60
2023-04-02T12:33:33.552Z,11.90
2023-04-02T12:36:02.382Z,12.30
2023-04-02T12:38:33.370Z,12.50
2023-04-02T12:41:03.531Z,12.60
2023-04-02T12:43:33.171Z,12.40
2023-04-02T12:46:05.685Z,12.50
2023-04-02T12:48:34.631Z,12.60
2023-04-02T12:51:02.725Z,12.60
2023-04-02T12:53:36.404Z,12.50
2023-04-02T12:56:04.712Z,12.50
2023-04-02T12:58:42.716Z,12.60
2023-04-02T13:01:24.664Z,12.80
2023-04-02T13:04:07.144Z,13.20
2023-04-02T13:06:35.580Z,13.30
2023-04-02T13:09:05.946Z,13.30
2023-04-02T13:11:41.122Z,13.20
2023-04-02T13:14:18.739Z,13.10
2023-04-02T13:16:46.113Z,13.00
2023-04-02T13:19:18.664Z,12.60
2023-04-02T13:21:45.940Z,12.50
2023-04-02T13:24:22.738Z,12.20
2023-04-02T13:26:51.097Z,12.10
2023-04-02T13:29:25.522Z,12.00
2023-04-02T13:31:55.704Z,11.90
2023-04-02T13:34:22.661Z,11.80
2023-04-02T13:36:49.587Z,11.70
2023-04-02T13:39:16.487Z,11.40
2023-04-02T13:41:45.612Z,11.30
2023-04-02T13:44:33.661Z,11.20
2023-04-02T13:47:01.091Z,11.50
2023-04-02T13:49:28.141Z,11.70
2023-04-02T13:51:58.685Z,11.90
2023-04-02T13:54:46.499Z,12.10
2023-04-02T13:57:13.854Z,12.20
2023-04-02T13:59:40.447Z,12.20
2023-04-02T14:02:20.368Z,12.20
2023-04-02T14:05:00.268Z,12.30
2023-04-02T14:07:41.222Z,12.50
2023-04-02T14:10:38.160Z,12.60
2023-04-02T14:13:32.781Z,12.60
2023-04-02T14:16:30.392Z,12.70
2023-04-02T14:19:06.224Z,12.80
2023-04-02T14:22:08.681Z,12.70
2023-04-02T14:24:39.767Z,12.70
2023-04-02T14:27:24.397Z,12.50
2023-04-02T14:30:01.150Z,12.20
2023-04-02T14:32:48.980Z,11.80
2023-04-02T14:35:37.186Z,11.40
2023-04-02T14:38:06.986Z,11.10
2023-04-02T14:40:49.393Z,10.60
2023-04-02T14:43:27.726Z,10.20
2023-04-02T14:46:01.601Z,9.80
2023-04-02T14:48:37.793Z,9.50
2023-04-02T14:51:34.726Z,9.40
2023-04-02T14:54:30.145Z,9.30
2023-04-02T14:57:06.777Z,9.40
2023-04-02T15:00:05.152Z,9.40
2023-04-02T15:02:51.559Z,9.40
2023-04-02T15:05:22.977Z,9.40
2023-04-02T15:07:58.369Z,9.40
2023-04-02T15:10:38.848Z,9.30
2023-04-02T15:13:12.768Z,9.00
2023-04-02T15:15:52.271Z,8.80
2023-04-02T15:18:18.999Z,8.40
2023-04-02T15:21:04.330Z,8.10
2023-04-02T15:23:36.459Z,7.90
2023-04-02T15:26:13.069Z,7.70
2023-04-02T15:29:02.577Z,7.50
2023-04-02T15:31:29.400Z,7.40
2023-04-02T15:34:06.629Z,7.40
2023-04-02T15:36:48.057Z,7.40
2023-04-02T15:39:41.687Z,7.50
2023-04-02T15:42:20.322Z,7.50
2023-04-02T15:45:02.163Z,7.50
2023-04-02T15:48:04.529Z,7.60
2023-04-02T15:50:49.763Z,7.70
2023-04-02T15:53:34.339Z,7.70
2023-04-02T15:56:30.734Z,7.80
2023-04-02T15:59:15.934Z,7.80
2023-04-02T16:02:10.282Z,7.80
2023-04-02T16:04:57.078Z,7.90
2023-04-02T16:08:01.268Z,7.90
2023-04-02T16:10:42.530Z,7.80
2023-04-02T16:13:19.091Z,7.80
2023-04-02T16:15:58.484Z,7.80
2023-04-02T16:18:40.425Z,7.90
2023-04-02T16:21:07.965Z,8.10
2023-04-02T16:23:39.094Z,8.00
2023-04-02T16:26:14.786Z,8.00
2023-04-02T16:29:20.148Z,8.10
2023-04-02T16:31:50.513Z,8.10
2023-04-02T16:34:28.828Z,8.10
2023-04-02T16:37:20.145Z,8.10
2023-04-02T16:39:59.396Z,8.00
2023-04-02T16:42:54.750Z,8.00
2023-04-02T16:45:21.384Z,8.00
2023-04-02T16:48:01.518Z,8.00
2023-04-02T16:50:55.615Z,7.90
2023-04-02T16:53:31.425Z,7.90
2023-04-02T16:56:04.090Z,7.90
2023-04-02T16:58:44.593Z,7.80
2023-04-02T17:01:25.163Z,7.80
2023-04-02T17:04:04.159Z,7.80
2023-04-02T17:06:43.051Z,7.80
2023-04-02T17:09:27.021Z,7.60
2023-04-02T17:12:04.210Z,7.60
2023-04-02T17:14:40.632Z,7.60
2023-04-02T17:17:12.082Z,7.50
2023-04-02T17:19:40.774Z,7.60
2023-04-02T17:22:18.868Z,7.60
2023-04-02T17:24:56.690Z,7.60
2023-04-02T17:27:28.863Z,7.60
2023-04-02T17:30:04.279Z,7.70
2023-04-02T17:32:33.606Z,7.70
2023-04-02T17:35:17.622Z,7.70
2023-04-02T17:37:52.610Z,7.70
2023-04-02T17:40:59.686Z,7.60
2023-04-02T17:43:53.894Z,7.50
2023-04-02T17:46:51.492Z,7.50
2023-04-02T17:49:27.468Z,7.50
2023-04-02T17:52:29.905Z,7.40
2023-04-02T17:55:37.748Z,7.40
2023-04-02T17:58:05.138Z,7.50
2023-04-02T18:00:49.016Z,7.40
2023-04-02T18:03:29.482Z,7.40
2023-04-02T18:06:08.350Z,7.40
2023-04-02T18:09:06.186Z,7.40
2023-04-02T18:12:00.562Z,7.40
2023-04-02T18:14:46.073Z,7.40
2023-04-02T18:17:27.871Z,7.40
2023-04-02T18:19:58.783Z,7.40
2023-04-02T18:23:03.751Z,7.30
2023-04-02T18:26:07.348Z,7.20
2023-04-02T18:28:44.955Z,7.10
2023-04-02T18:31:47.640Z,7.00
2023-04-02T18:35:00.287Z,7.00
2023-04-02T18:37:36.049Z,7.10
2023-04-02T18:40:30.610Z,7.00
2023-04-02T18:43:21.121Z,7.00
2023-04-02T18:46:05.436Z,6.90
2023-04-02T18:48:52.334Z,6.90
2023-04-02T18:51:22.364Z,7.00
2023-04-02T18:53:54.997Z,7.40
2023-04-02T18:56:24.349Z,7.40
2023-04-02T18:59:14.323Z,7.30
2023-04-02T19:01:45.706Z,7.60
2023-04-02T19:04:18.928Z,7.40
2023-04-02T19:06:52.215Z,7.30
2023-04-02T19:09:27.974Z,7.10
2023-04-02T19:11:54.692Z,6.90
2023-04-02T19:14:23.345Z,6.90
2023-04-02T19:17:02.564Z,6.70
2023-04-02T19:19:57.330Z,6.70
2023-04-02T19:22:33.493Z,6.60
2023-04-02T19:25:11.963Z,6.60
2023-04-02T19:28:13.835Z,6.50
2023-04-02T19:30:54.448Z,6.50
2023-04-02T19:33:42.499Z,6.40
2023-04-02T19:36:35.490Z,6.40
2023-04-02T19:39:23.527Z,6.40
2023-04-02T19:42:11.743Z,6.30
2023-04-02T19:44:43.664Z,6.20
2023-04-02T19:47:11.144Z,6.20
2023-04-02T19:49:37.871Z,6.10
2023-04-02T19:52:04.736Z,6.10
2023-04-02T19:54:31.415Z,6.10
2023-04-02T19:56:58.219Z,6.10
2023-04-02T19:59:24.930Z,6.10
2023-04-02T20:01:51.625Z,6.00
2023-04-02T20:04:18.317Z,6.00
2023-04-02T20:06:45.059Z,5.90
2023-04-02T20:09:11.776Z,5.90
2023-04-02T20:11:39.078Z,5.80
2023-04-02T20:14:06.099Z,5.80
2023-04-02T20:16:33.750Z,5.70
2023-04-02T20:19:00.577Z,5.60
2023-04-02T20:21:27.665Z,5.50
2023-04-02T20:23:54.846Z,5.50
2023-04-02T20:26:22.334Z,5.40
2023-04-02T20:28:49.135Z,5.20
2023-04-02T20:31:18.039Z,5.10
2023-04-02T20:33:45.258Z,5.00
2023-04-02T20:36:14.267Z,4.90
2023-04-02T20:38:41.546Z,4.70
2023-04-02T20:41:08.825Z,4.70
2023-04-02T20:43:36.500Z,4.50
2023-04-02T20:46:05.711Z,4.40
2023-04-02T20:48:33.597Z,4.30
2023-04-02T20:51:01.849Z,4.40
2023-04-02T20:53:29.838Z,4.30
2023-04-02T20:56:07.476Z,4.30
2023-04-02T20:58:36.180Z,4.20
2023-04-02T21:01:18.063Z,4.10
2023-04-02T21:03:44.916Z,4.00
2023-04-02T21:06:19.900Z,3.90
2023-04-02T21:08:47.131Z,3.90
2023-04-02T21:11:14.825Z,3.80
2023-04-02T21:13:43.870Z,3.80
2023-04-02T21:16:21.581Z,3.70
2023-04-02T21:18:52.730Z,3.80
2023-04-02T21:21:20.884Z,3.70
2023-04-02T21:23:48.015Z,3.60
2023-04-02T21:26:17.542Z,3.60
2023-04-02T21:28:45.195Z,3.60
2023-04-02T21:31:15.448Z,3.50
2023-04-02T21:33:45.243Z,3.40
2023-04-02T21:36:18.334Z,3.30
2023-04-02T21:38:47.446Z,3.30
2023-04-02T21:41:27.419Z,3.30
2023-04-02T21:43:55.767Z,3.30
2023-04-02T21:46:25.175Z,3.30
2023-04-02T21:48:53.773Z,3.30
2023-04-02T21:51:29.379Z,3.20
2023-04-02T21:53:56.572Z,3.20
2023-04-02T21:56:29.574Z,3.20
2023-04-02T21:58:57.091Z,3.10
2023-04-02T22:01:27.988Z,3.10
2023-04-02T22:03:56.842Z,3.10
2023-04-02T22:06:26.241Z,3.10
2023-04-02T22:09:06.332Z,3.10
2023-04-02T22:11:36.210Z,3.00
2023-04-02T22:14:03.952Z,3.00
2023-04-02T22:16:32.728Z,2.90
2023-04-02T22:19:01.886Z,2.90
2023-04-02T22:21:30.816Z,2.90
2023-04-02T22:24:03.036Z,2.80
2023-04-02T22:26:31.215Z,2.80
2023-04-02T22:28:58.450Z,2.80
2023-04-02T22:31:27.953Z,2.80
2023-04-02T22:33:56.688Z,2.80
2023-04-02T22:36:24.274Z,2.90
2023-04-02T22:38:51.168Z,2.90
2023-04-02T22:41:27.175Z,2.90
2023-04-02T22:43:55.655Z,2.80
2023-04-02T22:46:23.196Z,2.80
2023-04-02T22:48:50.655Z,2.80
2023-04-02T22:51:18.816Z,2.80
2023-04-02T22:53:45.869Z,2.80
2023-04-02T22:56:14.786Z,2.80
2023-04-02T22:58:41.659Z,2.70
2023-04-02T23:01:33.214Z,2.70
2023-04-02T23:04:00.006Z,2.60
2023-04-02T23:06:27.344Z,2.60
2023-04-02T23:08:53.957Z,2.50
2023-04-02T23:11:24.188Z,2.50
2023-04-02T23:13:53.218Z,2.50
2023-04-02T23:16:21.229Z,2.50
2023-04-02T23:18:49.090Z,2.50
2023-04-02T23:21:17.003Z,2.50
2023-04-02T23:23:44.312Z,2.50
2023-04-02T23:26:19.369Z,2.60
2023-04-02T23:28:46.164Z,2.50
2023-04-02T23:31:15.673Z,2.50
2023-04-02T23:33:43.147Z,2.50
2023-04-02T23:36:11.052Z,2.50
2023-04-02T23:38:37.872Z,2.50
2023-04-02T23:41:04.750Z,2.50
2023-04-02T23:43:31.706Z,2.60
2023-04-02T23:45:58.656Z,2.50
2023-04-02T23:48:25.549Z,2.50
2023-04-02T23:51:18.767Z,2.50
2023-04-02T23:53:45.589Z,2.50
2023-04-02T23:56:12.324Z,2.60
2023-04-02T23:58:39.044Z,2.60
